Time;durP1;ratioP1;P1;durP2;ratioP2;P2;SDS_P1;SDS_P2;PMS_P1;PMS_P2;Temp;Humidity;BMP_temperature;BMP_pressure;BME280_temperature;BME280_humidity;BME280_pressure;Samples;Min_cycle;Max_cycle;Signal;HPM_P1;HPM_P2
2023/12/19 00:01:54;;;;;;;31.37;15.40;;;7.50;99.90;;;;;;5015507;28;20307;-68
2023/12/19 00:04:23;;;;;;;29.13;15.60;;;7.50;99.90;;;;;;4998378;28;20201;-67
2023/12/19 00:06:50;;;;;;;31.47;14.60;;;7.50;99.90;;;;;;5001076;28;20670;-67
2023/12/19 00:09:16;;;;;;;27.20;14.03;;;7.50;99.90;;;;;;5012962;28;20635;-67
2023/12/19 00:11:43;;;;;;;28.67;14.00;;;7.50;99.90;;;;;;4977681;28;20580;-68
2023/12/19 00:14:10;;;;;;;32.60;15.63;;;7.50;99.90;;;;;;5013885;28;20690;-67
2023/12/19 00:16:37;;;;;;;30.00;14.83;;;7.50;99.90;;;;;;5003948;28;20636;-67
2023/12/19 00:19:07;;;;;;;22.90;13.73;;;7.40;99.90;;;;;;5004301;28;20359;-67
2023/12/19 00:21:35;;;;;;;21.63;13.40;;;7.40;99.90;;;;;;5017004;28;20194;-67
2023/12/19 00:24:02;;;;;;;25.37;13.63;;;7.40;99.90;;;;;;5000562;28;20205;-68
2023/12/19 00:26:29;;;;;;;21.77;12.17;;;7.40;99.90;;;;;;4978744;28;21121;-68
2023/12/19 00:28:56;;;;;;;22.37;13.90;;;7.40;99.90;;;;;;5017947;28;20205;-67
2023/12/19 00:31:23;;;;;;;22.07;13.23;;;7.50;99.90;;;;;;5001566;28;20232;-67
2023/12/19 00:33:50;;;;;;;23.23;13.87;;;7.40;99.90;;;;;;5000960;28;20197;-68
2023/12/19 00:36:21;;;;;;;24.87;12.40;;;7.40;99.90;;;;;;5009119;28;20709;-67
2023/12/19 00:38:49;;;;;;;22.57;12.57;;;7.50;99.90;;;;;;5004273;28;20714;-67
2023/12/19 00:41:16;;;;;;;21.20;12.30;;;7.50;99.90;;;;;;5004608;28;20237;-67
2023/12/19 00:43:44;;;;;;;21.37;12.13;;;7.40;99.90;;;;;;4983730;28;20205;-68
2023/12/19 00:46:11;;;;;;;22.60;12.37;;;7.40;99.90;;;;;;5007011;28;20249;-67
2023/12/19 00:48:38;;;;;;;21.53;11.87;;;7.40;99.90;;;;;;4997016;28;20431;-67
2023/12/19 00:51:10;;;;;;;23.03;12.27;;;7.30;99.90;;;;;;5009770;28;20612;-67
2023/12/19 00:53:37;;;;;;;18.43;11.70;;;7.40;99.90;;;;;;5002265;28;20792;-67
2023/12/19 00:56:08;;;;;;;19.03;11.77;;;7.40;99.90;;;;;;5010308;28;20202;-67
2023/12/19 00:58:36;;;;;;;19.83;11.67;;;7.40;99.90;;;;;;4976404;28;20221;-67
2023/12/19 01:01:03;;;;;;;19.40;11.80;;;7.40;99.90;;;;;;4996054;28;21176;-68
2023/12/19 01:03:30;;;;;;;22.73;12.23;;;7.40;99.90;;;;;;4994424;28;20521;-67
2023/12/19 01:05:57;;;;;;;17.57;10.50;;;7.30;99.90;;;;;;5007010;28;20615;-68
2023/12/19 01:08:23;;;;;;;18.17;10.20;;;7.30;99.90;;;;;;4999785;28;20690;-67
2023/12/19 01:10:50;;;;;;;18.40;11.13;;;7.30;99.90;;;;;;5004861;28;20206;-67
2023/12/19 01:13:18;;;;;;;17.63;10.97;;;7.30;99.90;;;;;;4983834;28;20968;-68
2023/12/19 01:15:45;;;;;;;20.13;11.53;;;7.30;99.90;;;;;;5019000;28;20300;-67
2023/12/19 01:18:12;;;;;;;17.47;10.83;;;7.30;99.90;;;;;;5004308;28;20235;-67
2023/12/19 01:20:40;;;;;;;17.53;10.97;;;7.40;99.90;;;;;;5009479;28;20205;-68
2023/12/19 01:23:07;;;;;;;18.53;10.73;;;7.40;99.90;;;;;;5019135;28;20190;-67
2023/12/19 01:25:34;;;;;;;18.83;10.87;;;6.60;99.90;;;;;;5002587;28;20206;-68
2023/12/19 01:28:01;;;;;;;17.27;10.57;;;7.40;99.90;;;;;;5016000;28;20216;-67
2023/12/19 01:30:29;;;;;;;24.73;11.20;;;6.50;99.90;;;;;;4976874;28;20202;-67
2023/12/19 01:32:56;;;;;;;18.97;10.17;;;7.30;99.90;;;;;;5005917;28;21035;-68
2023/12/19 01:35:23;;;;;;;14.73;9.67;;;7.60;99.90;;;;;;5001898;28;20547;-68
2023/12/19 01:37:50;;;;;;;20.00;10.53;;;7.30;99.90;;;;;;5013656;28;20194;-67
2023/12/19 01:40:17;;;;;;;14.87;9.93;;;7.40;99.90;;;;;;5005129;28;20499;-67
2023/12/19 01:42:43;;;;;;;17.00;10.60;;;7.30;99.90;;;;;;4999613;28;20867;-67
2023/12/19 01:45:12;;;;;;;16.13;10.30;;;7.30;99.90;;;;;;4978936;28;20237;-67
2023/12/19 01:47:43;;;;;;;16.17;10.53;;;7.30;99.90;;;;;;5005390;28;20283;-67
2023/12/19 01:50:11;;;;;;;14.53;10.33;;;7.80;99.90;;;;;;5001731;28;22373;-68
2023/12/19 01:52:42;;;;;;;16.33;9.47;;;7.40;99.90;;;;;;5011547;28;20643;-67
2023/12/19 01:55:09;;;;;;;15.30;9.67;;;7.30;99.90;;;;;;5002021;28;20197;-68
2023/12/19 01:57:37;;;;;;;16.30;9.13;;;7.40;99.90;;;;;;5004768;28;20197;-67
2023/12/19 02:00:05;;;;;;;15.20;9.50;;;7.40;99.90;;;;;;4977032;28;20785;-68
2023/12/19 02:02:32;;;;;;;15.67;9.27;;;7.40;99.90;;;;;;5015093;28;20228;-67
2023/12/19 02:05:00;;;;;;;16.03;9.53;;;7.40;99.90;;;;;;4994470;28;20225;-67
2023/12/19 02:07:27;;;;;;;14.73;8.97;;;7.30;99.90;;;;;;4996444;28;20205;-67
2023/12/19 02:09:54;;;;;;;13.50;8.80;;;7.40;99.90;;;;;;5001296;28;20197;-68
2023/12/19 02:12:21;;;;;;;17.03;8.70;;;7.30;99.90;;;;;;5013775;28;20201;-67
2023/12/19 02:14:49;;;;;;;15.57;8.97;;;7.40;99.90;;;;;;4973585;28;20210;-68
2023/12/19 02:17:17;;;;;;;12.53;8.53;;;7.30;99.90;;;;;;5014853;28;20202;-67
2023/12/19 02:19:45;;;;;;;15.03;9.07;;;7.30;99.90;;;;;;5001677;28;20342;-67
2023/12/19 02:22:14;;;;;;;17.93;9.97;;;7.30;99.90;;;;;;5004928;28;20214;-68
2023/12/19 02:24:42;;;;;;;14.50;8.57;;;7.30;99.90;;;;;;4998279;28;20208;-68
2023/12/19 02:27:10;;;;;;;13.30;8.47;;;7.40;99.90;;;;;;5014146;28;20194;-68
2023/12/19 02:29:37;;;;;;;11.83;8.80;;;7.30;99.90;;;;;;4980900;28;20204;-68
2023/12/19 02:32:04;;;;;;;17.43;9.20;;;7.30;99.90;;;;;;5004990;28;20328;-67
2023/12/19 02:34:31;;;;;;;15.37;9.17;;;7.30;99.90;;;;;;5001705;28;20212;-67
2023/12/19 02:36:58;;;;;;;14.27;8.03;;;7.30;99.90;;;;;;4996165;28;20407;-67
2023/12/19 02:39:25;;;;;;;14.50;9.40;;;7.30;99.90;;;;;;5010947;28;20254;-67
2023/12/19 02:41:53;;;;;;;14.60;8.10;;;7.30;99.90;;;;;;5001789;28;20210;-68
2023/12/19 02:44:22;;;;;;;14.67;9.27;;;7.30;99.90;;;;;;5008078;28;20233;-67
2023/12/19 02:46:49;;;;;;;11.93;8.93;;;7.40;99.90;;;;;;4973175;28;20613;-68
2023/12/19 02:49:16;;;;;;;14.97;9.33;;;7.40;99.90;;;;;;5011820;28;20216;-67
2023/12/19 02:51:43;;;;;;;13.47;8.93;;;7.30;99.90;;;;;;4988717;28;20205;-67
2023/12/19 02:54:10;;;;;;;13.43;9.00;;;6.50;99.90;;;;;;5011079;28;20200;-68
2023/12/19 02:56:37;;;;;;;11.93;8.77;;;7.30;99.90;;;;;;5004989;28;20206;-68
2023/12/19 02:59:05;;;;;;;12.03;8.10;;;7.30;99.90;;;;;;5013773;28;20340;-67
2023/12/19 03:01:32;;;;;;;13.13;8.57;;;7.40;99.90;;;;;;4972624;28;20311;-67
2023/12/19 03:03:59;;;;;;;14.67;8.93;;;7.30;99.90;;;;;;5013125;28;20311;-67
2023/12/19 03:06:26;;;;;;;13.33;9.00;;;7.30;99.90;;;;;;4998974;28;20202;-68
2023/12/19 03:08:57;;;;;;;18.93;8.83;;;7.40;99.90;;;;;;4998450;28;20215;-67
2023/12/19 03:11:24;;;;;;;14.93;9.00;;;7.50;99.90;;;;;;5014585;28;20194;-68
2023/12/19 03:13:51;;;;;;;13.20;8.53;;;7.40;99.90;;;;;;4998304;28;20925;-68
2023/12/19 03:16:19;;;;;;;13.17;8.67;;;7.40;99.90;;;;;;5010594;28;20231;-67
2023/12/19 03:18:46;;;;;;;13.40;8.17;;;7.30;99.90;;;;;;4975590;28;20222;-67
2023/12/19 03:21:13;;;;;;;15.47;8.23;;;6.90;99.90;;;;;;4999805;28;20801;-67
2023/12/19 03:23:40;;;;;;;14.23;9.60;;;;;;;;;;5003744;28;20654;-67
2023/12/19 03:26:07;;;;;;;13.07;8.67;;;7.40;99.90;;;;;;5014168;28;20197;-67
2023/12/19 03:28:35;;;;;;;14.47;8.60;;;7.40;99.90;;;;;;4996780;28;20707;-68
2023/12/19 03:31:02;;;;;;;14.47;9.13;;;7.40;99.90;;;;;;5013270;28;20307;-67
2023/12/19 03:33:31;;;;;;;13.00;7.97;;;7.40;99.90;;;;;;4976738;28;20221;-67
2023/12/19 03:35:57;;;;;;;15.13;9.23;;;7.40;99.90;;;;;;5014998;28;20225;-68
2023/12/19 03:38:24;;;;;;;15.80;9.13;;;7.40;99.90;;;;;;5004558;28;20579;-67
2023/12/19 03:40:51;;;;;;;15.63;9.27;;;7.30;99.90;;;;;;5001981;28;20835;-68
2023/12/19 03:43:18;;;;;;;14.10;9.03;;;7.40;99.90;;;;;;5002151;28;20773;-68
2023/12/19 03:45:45;;;;;;;14.27;9.03;;;7.40;99.90;;;;;;5009392;28;20463;-68
2023/12/19 03:48:12;;;;;;;15.17;8.87;;;7.40;99.90;;;;;;4980463;28;20220;-68
2023/12/19 03:50:40;;;;;;;14.40;9.57;;;7.50;99.90;;;;;;5010020;28;20190;-67
2023/12/19 03:53:07;;;;;;;14.17;9.23;;;7.40;99.90;;;;;;5004203;28;20198;-68
2023/12/19 03:55:33;;;;;;;12.43;8.93;;;7.40;99.90;;;;;;4998138;28;20795;-67
2023/12/19 03:58:00;;;;;;;14.77;9.27;;;7.40;99.90;;;;;;5000103;28;20580;-67
2023/12/19 04:00:27;;;;;;;15.07;8.83;;;7.40;99.90;;;;;;5008882;28;20251;-68
2023/12/19 04:02:54;;;;;;;13.77;8.00;;;;;;;;;;4994978;28;20663;-68
2023/12/19 04:05:21;;;;;;;14.73;8.43;;;7.40;99.90;;;;;;4992875;28;20559;-68
2023/12/19 04:07:49;;;;;;;12.20;8.37;;;7.40;99.90;;;;;;5014403;28;20669;-67
2023/12/19 04:10:16;;;;;;;13.03;8.47;;;7.40;99.90;;;;;;4985044;28;20743;-68
2023/12/19 04:12:43;;;;;;;12.57;7.87;;;7.40;99.90;;;;;;5016236;28;20413;-67
2023/12/19 04:15:11;;;;;;;12.80;7.97;;;7.40;99.90;;;;;;4990316;28;20609;-68
2023/12/19 04:17:37;;;;;;;12.10;7.43;;;7.40;99.90;;;;;;5014966;28;20231;-68
2023/12/19 04:20:05;;;;;;;13.23;8.60;;;7.50;99.90;;;;;;4976320;28;20937;-67
2023/12/19 04:22:32;;;;;;;12.87;8.00;;;7.50;99.90;;;;;;5016425;28;20228;-68
2023/12/19 04:25:00;;;;;;;11.87;7.53;;;7.40;99.90;;;;;;4992964;28;20216;-68
2023/12/19 04:27:27;;;;;;;13.87;8.57;;;7.40;99.90;;;;;;5010132;28;20705;-68
2023/12/19 04:29:56;;;;;;;12.27;8.10;;;6.70;99.90;;;;;;4989514;28;20201;-68
2023/12/19 04:32:23;;;;;;;10.50;7.13;;;7.40;99.90;;;;;;5008546;28;20201;-67
2023/12/19 04:34:51;;;;;;;9.57;6.77;;;7.30;99.90;;;;;;5000882;28;20294;-68
2023/12/19 04:37:18;;;;;;;12.17;7.07;;;7.10;99.90;;;;;;4990219;28;20550;-68
2023/12/19 04:39:45;;;;;;;11.43;6.87;;;7.30;99.90;;;;;;5016132;28;20228;-67
2023/12/19 04:42:17;;;;;;;9.83;6.80;;;7.30;99.90;;;;;;4989616;28;20198;-68
2023/12/19 04:44:44;;;;;;;9.07;6.37;;;7.30;99.90;;;;;;5001836;28;20230;-67
2023/12/19 04:47:11;;;;;;;11.43;7.07;;;7.30;99.90;;;;;;5008273;28;20662;-67
2023/12/19 04:49:38;;;;;;;8.50;6.13;;;7.30;99.90;;;;;;5004273;28;20320;-67
2023/12/19 04:52:05;;;;;;;11.20;6.60;;;7.30;99.90;;;;;;4963226;28;21515;-67
2023/12/19 04:54:32;;;;;;;11.47;6.47;;;7.30;99.90;;;;;;5002893;28;20204;-68
2023/12/19 04:56:59;;;;;;;10.80;5.77;;;7.30;99.90;;;;;;4983308;28;20598;-68
2023/12/19 04:59:27;;;;;;;7.80;5.63;;;7.30;99.90;;;;;;4995065;28;20357;-68
2023/12/19 05:01:54;;;;;;;8.10;6.27;;;7.20;99.90;;;;;;5008821;28;20201;-67
2023/12/19 05:04:21;;;;;;;6.90;5.53;;;7.30;99.90;;;;;;4984598;28;20211;-68
2023/12/19 05:06:48;;;;;;;6.77;5.20;;;7.00;99.90;;;;;;4974931;28;20354;-67
2023/12/19 05:09:15;;;;;;;6.13;4.67;;;7.20;99.90;;;;;;4987211;28;20456;-68
2023/12/19 05:11:44;;;;;;;7.57;4.77;;;7.20;99.90;;;;;;4992799;28;20216;-68
2023/12/19 05:14:11;;;;;;;6.43;4.83;;;7.20;99.90;;;;;;5008568;28;20601;-67
2023/12/19 05:16:39;;;;;;;7.07;4.60;;;7.20;99.90;;;;;;5002018;28;20201;-68
2023/12/19 05:19:06;;;;;;;8.27;4.80;;;7.20;99.90;;;;;;5014519;28;20294;-67
2023/12/19 05:21:37;;;;;;;7.30;5.07;;;7.20;99.90;;;;;;4993695;28;20204;-69
2023/12/19 05:24:05;;;;;;;8.03;5.03;;;7.20;99.90;;;;;;5000177;28;20243;-68
2023/12/19 05:26:32;;;;;;;6.23;4.33;;;8.00;99.90;;;;;;4991314;28;20211;-68
2023/12/19 05:28:59;;;;;;;5.47;3.90;;;6.90;99.90;;;;;;4993346;28;20862;-68
2023/12/19 05:31:26;;;;;;;6.57;4.37;;;7.30;99.90;;;;;;4995842;28;20213;-68
2023/12/19 05:33:55;;;;;;;4.30;3.70;;;7.20;99.90;;;;;;5012670;28;20402;-68
2023/12/19 05:36:22;;;;;;;5.90;3.90;;;7.40;99.90;;;;;;4996631;28;20280;-67
2023/12/19 05:38:49;;;;;;;5.20;3.67;;;7.20;99.90;;;;;;4957448;28;20438;-69
2023/12/19 05:41:16;;;;;;;4.30;3.47;;;6.70;99.90;;;;;;5010167;28;20237;-68
2023/12/19 05:43:43;;;;;;;4.93;3.97;;;7.20;99.90;;;;;;4969359;28;20756;-68
2023/12/19 05:46:10;;;;;;;5.30;3.53;;;6.80;99.90;;;;;;5002315;28;20972;-68
2023/12/19 05:48:37;;;;;;;4.67;3.70;;;7.20;99.90;;;;;;5000584;28;20626;-68
2023/12/19 05:51:06;;;;;;;3.77;3.37;;;7.20;99.90;;;;;;4995987;28;20225;-68
2023/12/19 05:53:33;;;;;;;5.67;3.40;;;7.20;99.90;;;;;;4973581;28;20717;-68
2023/12/19 05:56:00;;;;;;;3.90;3.27;;;7.20;99.90;;;;;;5000329;28;20821;-68
2023/12/19 05:58:26;;;;;;;4.63;3.30;;;6.70;99.90;;;;;;4994406;28;20247;-68
2023/12/19 06:00:55;;;;;;;5.10;3.50;;;6.90;99.90;;;;;;4987035;28;20612;-68
2023/12/19 06:03:23;;;;;;;9.67;4.00;;;7.10;99.90;;;;;;4991465;28;20335;-68
2023/12/19 06:05:50;;;;;;;4.37;3.70;;;7.20;99.90;;;;;;4995372;28;20225;-68
2023/12/19 06:08:20;;;;;;;4.10;3.33;;;7.30;99.90;;;;;;4957420;28;20225;-69
2023/12/19 06:10:47;;;;;;;4.43;3.50;;;6.90;99.90;;;;;;4998824;28;20205;-68
2023/12/19 06:13:14;;;;;;;3.90;3.30;;;7.20;99.90;;;;;;4996398;28;20362;-68
2023/12/19 06:15:41;;;;;;;4.37;3.20;;;7.20;99.90;;;;;;4995444;28;20229;-69
2023/12/19 06:18:08;;;;;;;5.57;3.30;;;7.20;99.90;;;;;;4983051;28;20422;-69
2023/12/19 06:20:35;;;;;;;5.33;3.30;;;7.20;99.90;;;;;;4990446;28;20685;-68
2023/12/19 06:23:02;;;;;;;3.93;3.23;;;7.20;99.90;;;;;;5010024;28;20681;-69
2023/12/19 06:25:31;;;;;;;4.20;3.00;;;7.20;99.90;;;;;;4973841;28;20209;-69
2023/12/19 06:27:59;;;;;;;2.90;2.57;;;;;;;;;;5010984;28;20222;-69
2023/12/19 06:30:26;;;;;;;4.53;3.47;;;7.20;99.90;;;;;;5014480;28;20256;-69
2023/12/19 06:32:52;;;;;;;4.20;3.03;;;7.20;99.90;;;;;;4994455;28;20734;-68
2023/12/19 06:35:19;;;;;;;3.80;2.63;;;7.30;99.90;;;;;;5009749;28;21199;-68
2023/12/19 06:37:46;;;;;;;5.17;3.53;;;7.20;99.90;;;;;;4994052;28;20224;-68
2023/12/19 06:40:13;;;;;;;4.07;3.03;;;7.40;99.90;;;;;;4958541;28;20509;-68
2023/12/19 06:42:42;;;;;;;2.93;2.50;;;7.20;99.90;;;;;;5003013;28;20214;-68
2023/12/19 06:45:11;;;;;;;3.73;2.80;;;7.10;99.90;;;;;;5001807;28;20624;-68
2023/12/19 06:47:38;;;;;;;3.53;2.80;;;7.20;99.90;;;;;;5005040;28;20287;-68
2023/12/19 06:50:07;;;;;;;2.93;2.50;;;7.20;99.90;;;;;;4997778;28;20249;-68
2023/12/19 06:52:34;;;;;;;3.27;2.67;;;7.20;99.90;;;;;;5013398;28;20796;-68
2023/12/19 06:55:01;;;;;;;3.70;2.80;;;7.10;99.90;;;;;;4967324;28;20213;-68
2023/12/19 06:57:28;;;;;;;3.20;2.47;;;7.20;99.90;;;;;;5005274;28;20202;-68
2023/12/19 06:59:56;;;;;;;3.37;2.57;;;7.20;99.90;;;;;;4990120;28;20458;-68
2023/12/19 07:02:23;;;;;;;2.73;2.47;;;7.20;99.90;;;;;;5005906;28;23896;-68
2023/12/19 07:04:50;;;;;;;3.10;2.23;;;7.20;99.90;;;;;;4994512;28;20221;-68
2023/12/19 07:07:17;;;;;;;2.50;2.20;;;7.20;99.90;;;;;;5014873;28;20201;-69
2023/12/19 07:09:45;;;;;;;2.57;2.23;;;7.20;99.90;;;;;;4992025;28;20197;-68
2023/12/19 07:12:12;;;;;;;3.10;2.33;;;7.60;99.90;;;;;;5005317;28;20263;-68
2023/12/19 07:14:39;;;;;;;2.73;2.40;;;6.60;99.90;;;;;;5018411;28;20709;-69
2023/12/19 07:17:07;;;;;;;2.73;2.00;;;7.30;99.90;;;;;;5014178;28;20545;-69
2023/12/19 07:19:35;;;;;;;2.53;2.20;;;7.30;99.90;;;;;;5007544;28;20205;-68
2023/12/19 07:22:02;;;;;;;3.67;2.20;;;7.20;99.90;;;;;;4997498;28;20253;-69
2023/12/19 07:24:30;;;;;;;3.10;2.37;;;7.30;99.90;;;;;;5017329;28;20209;-69
2023/12/19 07:26:57;;;;;;;2.40;2.20;;;7.30;99.90;;;;;;4969355;28;20291;-69
2023/12/19 07:29:24;;;;;;;3.03;2.37;;;7.30;99.90;;;;;;5014432;28;20206;-68
2023/12/19 07:31:52;;;;;;;2.57;2.37;;;7.30;99.90;;;;;;4999822;28;20574;-68
2023/12/19 07:34:20;;;;;;;5.53;2.70;;;7.30;99.90;;;;;;5007491;28;20205;-69
2023/12/19 07:36:47;;;;;;;2.80;2.50;;;7.30;99.90;;;;;;4995783;28;20202;-68
2023/12/19 07:39:14;;;;;;;3.60;2.30;;;7.30;99.90;;;;;;5013893;28;20204;-68
2023/12/19 07:41:41;;;;;;;2.23;2.03;;;7.30;99.90;;;;;;4978632;28;20520;-68
2023/12/19 07:44:09;;;;;;;3.17;2.43;;;7.30;99.90;;;;;;5021356;28;20486;-68
2023/12/19 07:46:40;;;;;;;2.83;2.60;;;7.30;99.90;;;;;;5004814;28;20668;-70
2023/12/19 07:49:06;;;;;;;3.50;2.60;;;7.20;99.90;;;;;;5006225;28;20232;-68
2023/12/19 07:51:35;;;;;;;2.57;2.07;;;7.40;99.90;;;;;;5020540;28;20706;-68
2023/12/19 07:54:02;;;;;;;2.73;2.17;;;7.40;99.90;;;;;;5010140;28;20524;-68
2023/12/19 07:56:28;;;;;;;3.00;2.20;;;7.30;99.90;;;;;;5021071;28;20225;-69
2023/12/19 07:58:56;;;;;;;2.33;2.10;;;7.40;99.90;;;;;;4974339;28;20503;-68
2023/12/19 08:01:23;;;;;;;2.20;1.90;;;8.20;99.90;;;;;;5018262;28;20228;-68
2023/12/19 08:03:49;;;;;;;2.23;1.90;;;7.30;99.90;;;;;;4993930;28;20197;-68
2023/12/19 08:06:16;;;;;;;2.17;1.97;;;7.30;99.90;;;;;;5004155;28;20197;-69
2023/12/19 08:08:45;;;;;;;2.17;1.83;;;7.30;99.90;;;;;;5003372;28;20204;-69
2023/12/19 08:11:14;;;;;;;2.10;1.90;;;7.30;99.90;;;;;;5020118;28;20205;-69
2023/12/19 08:13:41;;;;;;;2.90;1.90;;;7.30;99.90;;;;;;4968609;28;20236;-69
2023/12/19 08:16:08;;;;;;;2.57;2.00;;;7.20;99.90;;;;;;5017215;28;20945;-69
2023/12/19 08:18:35;;;;;;;2.87;1.70;;;7.30;99.90;;;;;;5010276;28;20263;-68
2023/12/19 08:21:03;;;;;;;4.50;2.00;;;7.30;99.90;;;;;;4994076;28;20426;-68
2023/12/19 08:23:30;;;;;;;2.30;2.10;;;7.30;99.90;;;;;;5006016;28;20206;-68
2023/12/19 08:25:58;;;;;;;2.27;2.07;;;7.30;99.90;;;;;;5012475;28;20232;-68
2023/12/19 08:28:24;;;;;;;3.90;2.50;;;6.80;99.90;;;;;;4970753;28;20198;-68
2023/12/19 08:30:51;;;;;;;2.87;2.57;;;7.30;99.90;;;;;;5013070;28;20232;-68
2023/12/19 08:33:18;;;;;;;6.77;2.00;;;7.40;99.90;;;;;;5004563;28;20227;-68
2023/12/19 08:35:46;;;;;;;2.60;2.30;;;7.30;99.90;;;;;;5008071;28;20206;-67
2023/12/19 08:38:12;;;;;;;2.73;2.03;;;7.30;99.90;;;;;;4994480;28;20217;-68
2023/12/19 08:40:39;;;;;;;2.50;2.00;;;7.30;99.90;;;;;;5006779;28;20232;-69
2023/12/19 08:43:08;;;;;;;2.30;1.93;;;7.20;99.90;;;;;;4973660;28;20599;-69
2023/12/19 08:45:34;;;;;;;4.87;2.30;;;9.00;99.90;;;;;;5007075;28;20310;-68
2023/12/19 08:48:03;;;;;;;1.67;1.57;;;7.30;99.90;;;;;;4998149;28;20682;-69
2023/12/19 08:50:30;;;;;;;2.60;1.90;;;7.30;99.90;;;;;;4986988;28;20204;-69
2023/12/19 08:52:57;;;;;;;2.90;2.30;;;7.30;99.90;;;;;;5001535;28;20225;-69
2023/12/19 08:55:24;;;;;;;2.00;1.80;;;;;;;;;;5002981;28;20208;-69
2023/12/19 08:57:51;;;;;;;1.83;1.67;;;7.30;99.90;;;;;;4994441;28;20879;-69
2023/12/19 09:00:21;;;;;;;2.23;1.87;;;7.20;99.90;;;;;;4975486;28;20198;-69
2023/12/19 09:02:49;;;;;;;2.60;2.03;;;7.30;99.90;;;;;;5009867;28;20198;-69
2023/12/19 09:05:17;;;;;;;3.30;2.47;;;7.40;99.90;;;;;;5007267;28;20407;-69
2023/12/19 09:07:46;;;;;;;3.37;2.77;;;7.30;99.90;;;;;;5000418;28;22748;-69
2023/12/19 09:10:14;;;;;;;3.10;2.80;;;7.30;99.90;;;;;;5003080;28;20520;-69
2023/12/19 09:12:42;;;;;;;2.77;2.50;;;7.30;99.90;;;;;;5013105;28;20329;-69
2023/12/19 09:15:10;;;;;;;2.97;2.50;;;7.30;99.90;;;;;;4969826;28;20271;-69
2023/12/19 09:17:39;;;;;;;3.20;2.47;;;7.30;99.90;;;;;;5020424;28;20193;-69
2023/12/19 09:20:07;;;;;;;2.93;1.93;;;7.30;99.90;;;;;;5004725;28;21249;-68
2023/12/19 09:22:35;;;;;;;2.30;2.10;;;7.30;99.90;;;;;;5009236;28;20228;-69
2023/12/19 09:25:02;;;;;;;2.10;1.90;;;7.40;99.90;;;;;;5003466;28;20324;-70
2023/12/19 09:27:29;;;;;;;2.30;2.03;;;7.30;99.90;;;;;;5016573;28;20198;-69
2023/12/19 09:29:55;;;;;;;2.77;2.20;;;7.40;99.90;;;;;;4975196;28;20771;-70
2023/12/19 09:32:22;;;;;;;2.50;2.07;;;7.30;99.90;;;;;;5019368;28;20212;-69
2023/12/19 09:34:51;;;;;;;2.03;1.83;;;7.40;99.90;;;;;;4987316;28;20206;-69
2023/12/19 09:37:21;;;;;;;2.70;2.00;;;7.60;99.90;;;;;;5004774;28;20564;-69
2023/12/19 09:39:48;;;;;;;2.03;1.93;;;7.40;99.90;;;;;;5003990;28;20209;-69
2023/12/19 09:42:18;;;;;;;4.50;2.00;;;7.40;99.90;;;;;;5015022;28;20230;-69
2023/12/19 09:44:46;;;;;;;2.30;1.80;;;7.40;99.90;;;;;;4999162;28;20887;-69
2023/12/19 09:47:18;;;;;;;1.87;1.77;;;7.40;99.90;;;;;;4987037;28;20212;-70
2023/12/19 09:49:51;;;;;;;1.93;1.73;;;7.40;99.90;;;;;;5014059;28;21324;-69
2023/12/19 09:52:23;;;;;;;2.87;1.83;;;7.50;99.90;;;;;;5005632;28;20224;-69
2023/12/19 09:54:51;;;;;;;2.00;1.80;;;7.50;99.90;;;;;;5006270;28;20861;-69
2023/12/19 09:57:18;;;;;;;2.00;1.63;;;7.40;99.90;;;;;;5017379;28;20202;-69
2023/12/19 09:59:46;;;;;;;2.83;2.00;;;7.50;99.90;;;;;;5011608;28;20391;-70
2023/12/19 10:02:14;;;;;;;1.77;1.67;;;7.50;99.90;;;;;;4979884;28;20237;-69
2023/12/19 10:04:41;;;;;;;2.27;1.87;;;7.50;99.90;;;;;;5013437;28;20605;-69
2023/12/19 10:07:08;;;;;;;3.30;1.90;;;7.40;99.90;;;;;;5011549;28;20674;-69
2023/12/19 10:09:51;;;;;;;2.30;1.93;;;7.50;99.90;;;;;;4988047;28;20213;-69
2023/12/19 10:12:18;;;;;;;3.00;1.70;;;7.50;99.90;;;;;;4997964;28;20752;-69
2023/12/19 10:14:46;;;;;;;1.90;1.70;;;7.20;99.90;;;;;;5014157;28;20607;-69
2023/12/19 10:17:17;;;;;;;5.77;2.07;;;7.50;99.90;;;;;;4979576;28;20210;-69
2023/12/19 10:19:44;;;;;;;2.47;2.00;;;7.60;99.90;;;;;;5015555;28;20878;-69
2023/12/19 10:22:15;;;;;;;2.37;1.70;;;7.60;99.90;;;;;;5015388;28;20235;-69
2023/12/19 10:24:43;;;;;;;1.53;1.30;;;7.50;99.90;;;;;;5005519;28;20460;-70
2023/12/19 10:27:10;;;;;;;2.37;1.67;;;7.50;99.90;;;;;;5011751;28;20213;-70
2023/12/19 10:29:37;;;;;;;2.23;1.80;;;7.60;99.90;;;;;;5013819;28;20201;-69
2023/12/19 10:32:16;;;;;;;1.53;1.33;;;7.50;99.90;;;;;;5002191;28;20232;-69
2023/12/19 10:34:44;;;;;;;1.93;1.73;;;7.60;99.90;;;;;;4989749;28;20706;-69
2023/12/19 10:37:12;;;;;;;1.53;1.43;;;7.60;99.90;;;;;;5012295;28;21348;-69
2023/12/19 10:39:39;;;;;;;3.83;2.10;;;7.60;99.90;;;;;;5008666;28;20202;-69
2023/12/19 10:42:09;;;;;;;2.47;1.80;;;7.60;99.90;;;;;;5017617;28;20225;-69
2023/12/19 10:44:38;;;;;;;2.13;1.70;;;7.30;99.90;;;;;;4995665;28;20633;-69
2023/12/19 10:47:07;;;;;;;2.37;1.70;;;7.60;99.90;;;;;;5017653;28;20243;-69
2023/12/19 10:49:34;;;;;;;2.13;1.50;;;7.80;99.90;;;;;;4978651;28;20209;-69
2023/12/19 10:52:06;;;;;;;2.20;1.80;;;7.70;99.90;;;;;;5008389;28;20198;-69
2023/12/19 10:54:36;;;;;;;1.87;1.57;;;7.60;99.90;;;;;;5001732;28;20216;-69
2023/12/19 10:57:13;;;;;;;2.50;1.43;;;7.60;99.90;;;;;;5016915;28;20205;-69
2023/12/19 10:59:46;;;;;;;2.37;1.87;;;7.70;99.90;;;;;;5002659;28;20745;-69
2023/12/19 11:02:22;;;;;;;2.43;1.70;;;7.70;99.90;;;;;;5018534;28;20224;-69
2023/12/19 11:04:54;;;;;;;2.50;1.73;;;7.60;99.90;;;;;;4982717;28;20214;-69
2023/12/19 11:07:23;;;;;;;2.10;1.90;;;7.70;99.90;;;;;;5006369;28;20284;-69
2023/12/19 11:09:58;;;;;;;1.80;1.70;;;7.70;99.90;;;;;;4983104;28;20232;-69
2023/12/19 11:12:27;;;;;;;2.97;1.57;;;7.70;99.90;;;;;;4995580;28;20428;-69
2023/12/19 11:14:55;;;;;;;2.57;1.77;;;7.70;99.90;;;;;;5006162;28;20306;-69
2023/12/19 11:17:26;;;;;;;1.63;1.53;;;7.70;99.90;;;;;;5000912;28;20205;-69
2023/12/19 11:19:56;;;;;;;1.73;1.60;;;7.70;99.90;;;;;;5015637;28;20197;-69
2023/12/19 11:22:32;;;;;;;1.80;1.50;;;8.40;99.90;;;;;;4977789;28;20232;-69
2023/12/19 11:25:05;;;;;;;1.80;1.63;;;7.70;99.90;;;;;;5005907;28;20315;-69
2023/12/19 11:27:38;;;;;;;2.03;1.63;;;7.80;99.90;;;;;;4999359;28;20260;-69
2023/12/19 11:30:06;;;;;;;2.60;2.03;;;6.90;99.90;;;;;;5010130;28;20543;-69
2023/12/19 11:32:41;;;;;;;3.20;2.13;;;7.40;99.90;;;;;;5009152;28;20411;-69
2023/12/19 11:35:13;;;;;;;2.43;1.87;;;7.80;99.90;;;;;;5014190;28;20228;-69
2023/12/19 11:37:41;;;;;;;2.80;2.37;;;7.70;99.90;;;;;;4977827;28;20209;-69
2023/12/19 11:40:09;;;;;;;2.77;2.10;;;7.90;99.90;;;;;;5004335;28;20280;-69
2023/12/19 11:42:50;;;;;;;8.07;1.93;;;8.10;99.90;;;;;;5016961;28;20304;-69
2023/12/19 11:45:38;;;;;;;3.43;2.00;;;8.60;99.90;;;;;;5007261;28;20598;-69
2023/12/19 11:48:36;;;;;;;8.90;2.10;;;8.60;99.90;;;;;;5022247;28;20212;-69
2023/12/19 11:51:03;;;;;;;10.35;2.42;;;;;;;;;;5019968;28;20213;-69
2023/12/19 11:53:30;;;;;;;2.40;1.80;;;8.30;99.90;;;;;;4980555;28;20851;-69
2023/12/19 11:56:08;;;;;;;2.83;2.10;;;8.10;99.90;;;;;;5006953;28;20209;-69
2023/12/19 11:58:36;;;;;;;2.30;1.83;;;8.20;99.90;;;;;;5000469;28;20214;-69
2023/12/19 12:01:08;;;;;;;2.83;1.80;;;8.10;99.90;;;;;;5005656;28;20877;-69
2023/12/19 12:03:35;;;;;;;7.40;1.80;;;8.00;99.90;;;;;;5016860;28;20268;-69
2023/12/19 12:06:03;;;;;;;1.90;1.75;;;8.10;99.90;;;;;;4997791;28;20226;-69
2023/12/19 12:08:30;;;;;;;2.55;2.05;;;8.10;99.90;;;;;;4975439;28;20210;-69
2023/12/19 12:11:01;;;;;;;1.90;1.73;;;8.10;99.90;;;;;;5008965;28;20198;-69
2023/12/19 12:13:30;;;;;;;1.98;1.77;;;8.10;99.90;;;;;;5015622;28;20355;-69
2023/12/19 12:15:59;;;;;;;2.03;1.80;;;8.10;99.90;;;;;;5006462;28;21063;-69
2023/12/19 12:18:26;;;;;;;2.17;1.80;;;8.20;99.90;;;;;;5017348;28;20288;-69
2023/12/19 12:20:56;;;;;;;2.22;1.80;;;8.10;99.90;;;;;;5018485;28;20761;-69
2023/12/19 12:23:23;;;;;;;3.65;1.75;;;8.20;99.90;;;;;;4987232;28;20240;-69
2023/12/19 12:25:56;;;;;;;4.40;1.73;;;8.10;99.90;;;;;;5007810;28;20228;-69
2023/12/19 12:28:26;;;;;;;2.20;1.95;;;8.20;99.90;;;;;;5001364;28;20228;-69
2023/12/19 12:30:59;;;;;;;2.60;2.00;;;8.20;99.90;;;;;;5018637;28;21165;-68
2023/12/19 12:33:27;;;;;;;2.40;1.80;;;8.20;99.90;;;;;;5006445;28;20225;-68
2023/12/19 12:35:55;;;;;;;2.23;1.80;;;8.30;99.90;;;;;;5013948;28;20226;-68
2023/12/19 12:38:23;;;;;;;2.30;2.03;;;8.30;99.90;;;;;;5012248;28;20705;-68
2023/12/19 12:40:59;;;;;;;2.80;2.00;;;8.40;99.90;;;;;;4968550;28;20217;-69
2023/12/19 12:43:37;;;;;;;3.10;2.22;;;8.40;99.90;;;;;;5004425;28;20419;-69
2023/12/19 12:46:13;;;;;;;2.42;2.17;;;8.30;99.90;;;;;;5010576;28;20334;-69
2023/12/19 12:48:41;;;;;;;12.27;1.80;;;8.20;99.90;;;;;;5005105;28;20197;-69
2023/12/19 12:51:08;;;;;;;3.20;2.20;;;8.40;99.90;;;;;;5017892;28;20495;-69
2023/12/19 12:53:36;;;;;;;8.10;2.50;;;8.30;99.90;;;;;;5015775;28;20193;-69
2023/12/19 12:56:05;;;;;;;8.00;2.45;;;8.40;99.90;;;;;;4975777;28;20206;-69
2023/12/19 12:58:32;;;;;;;3.15;2.53;;;8.50;99.90;;;;;;5003016;28;20430;-69